sensor_id;sensor_type;location;lat;lon;timestamp;P1;durP1;ratioP1;P2;durP2;ratioP2
80247;SDS011;69560;52.206;21.018;2024-01-06T00:01:17;21.40;;;13.80;;
80247;SDS011;69560;52.206;21.018;2024-01-06T00:03:43;23.70;;;15.00;;
80247;SDS011;69560;52.206;21.018;2024-01-06T00:06:13;22.80;;;14.10;;
80247;SDS011;69560;52.206;21.018;2024-01-06T00:11:07;25.40;;;14.80;;
80247;SDS011;69560;52.206;21.018;2024-01-06T00:13:34;25.70;;;16.10;;
80247;SDS011;69560;52.206;21.018;2024-01-06T00:16:00;31.80;;;16.90;;
80247;SDS011;69560;52.206;21.018;2024-01-06T00:18:27;24.40;;;15.70;;
80247;SDS011;69560;52.206;21.018;2024-01-06T00:20:54;27.60;;;16.40;;
80247;SDS011;69560;52.206;21.018;2024-01-06T00:23:20;27.50;;;16.30;;
80247;SDS011;69560;52.206;21.018;2024-01-06T00:25:47;29.10;;;17.40;;
80247;SDS011;69560;52.206;21.018;2024-01-06T00:28:13;31.10;;;17.10;;
80247;SDS011;69560;52.206;21.018;2024-01-06T00:30:39;32.80;;;18.10;;
80247;SDS011;69560;52.206;21.018;2024-01-06T00:33:06;29.00;;;18.00;;
80247;SDS011;69560;52.206;21.018;2024-01-06T00:35:32;31.00;;;18.00;;
80247;SDS011;69560;52.206;21.018;2024-01-06T00:37:59;32.80;;;20.20;;
80247;SDS011;69560;52.206;21.018;2024-01-06T00:40:26;31.70;;;18.90;;
80247;SDS011;69560;52.206;21.018;2024-01-06T00:42:53;35.90;;;19.90;;
80247;SDS011;69560;52.206;21.018;2024-01-06T00:45:19;29.90;;;18.80;;
80247;SDS011;69560;52.206;21.018;2024-01-06T00:47:46;30.20;;;18.60;;
80247;SDS011;69560;52.206;21.018;2024-01-06T00:50:12;28.30;;;17.00;;
80247;SDS011;69560;52.206;21.018;2024-01-06T00:52:39;28.30;;;18.40;;
80247;SDS011;69560;52.206;21.018;2024-01-06T00:55:05;27.60;;;17.40;;
80247;SDS011;69560;52.206;21.018;2024-01-06T00:57:32;29.20;;;17.80;;
80247;SDS011;69560;52.206;21.018;2024-01-06T00:59:58;28.10;;;17.80;;
80247;SDS011;69560;52.206;21.018;2024-01-06T01:02:25;27.00;;;17.00;;
80247;SDS011;69560;52.206;21.018;2024-01-06T01:04:52;31.10;;;17.90;;
80247;SDS011;69560;52.206;21.018;2024-01-06T01:07:19;26.20;;;16.30;;
80247;SDS011;69560;52.206;21.018;2024-01-06T01:09:45;24.70;;;15.50;;
80247;SDS011;69560;52.206;21.018;2024-01-06T01:12:12;23.00;;;15.40;;
80247;SDS011;69560;52.206;21.018;2024-01-06T01:14:38;21.90;;;14.60;;
80247;SDS011;69560;52.206;21.018;2024-01-06T01:17:05;26.40;;;15.50;;
80247;SDS011;69560;52.206;21.018;2024-01-06T01:19:32;20.00;;;13.60;;
80247;SDS011;69560;52.206;21.018;2024-01-06T01:21:58;24.90;;;14.70;;
80247;SDS011;69560;52.206;21.018;2024-01-06T01:24:25;21.00;;;13.40;;
80247;SDS011;69560;52.206;21.018;2024-01-06T01:26:52;27.20;;;15.10;;
80247;SDS011;69560;52.206;21.018;2024-01-06T01:29:18;21.60;;;14.30;;
80247;SDS011;69560;52.206;21.018;2024-01-06T01:31:46;22.30;;;14.20;;
80247;SDS011;69560;52.206;21.018;2024-01-06T01:34:13;21.30;;;14.20;;
80247;SDS011;69560;52.206;21.018;2024-01-06T01:36:40;24.60;;;15.40;;
80247;SDS011;69560;52.206;21.018;2024-01-06T01:39:07;22.60;;;14.20;;
80247;SDS011;69560;52.206;21.018;2024-01-06T01:41:33;23.50;;;14.70;;
80247;SDS011;69560;52.206;21.018;2024-01-06T01:43:59;22.00;;;14.30;;
80247;SDS011;69560;52.206;21.018;2024-01-06T01:46:26;24.90;;;14.90;;
80247;SDS011;69560;52.206;21.018;2024-01-06T01:48:54;22.40;;;14.50;;
80247;SDS011;69560;52.206;21.018;2024-01-06T01:51:21;24.20;;;14.00;;
80247;SDS011;69560;52.206;21.018;2024-01-06T01:53:49;21.20;;;13.60;;
80247;SDS011;69560;52.206;21.018;2024-01-06T01:56:16;21.90;;;13.20;;
80247;SDS011;69560;52.206;21.018;2024-01-06T01:58:43;22.70;;;13.40;;
80247;SDS011;69560;52.206;21.018;2024-01-06T02:01:10;20.20;;;12.40;;
80247;SDS011;69560;52.206;21.018;2024-01-06T02:03:36;20.60;;;13.40;;
80247;SDS011;69560;52.206;21.018;2024-01-06T02:06:03;20.90;;;12.40;;
80247;SDS011;69560;52.206;21.018;2024-01-06T02:08:30;18.80;;;12.00;;
80247;SDS011;69560;52.206;21.018;2024-01-06T02:10:56;19.20;;;12.00;;
80247;SDS011;69560;52.206;21.018;2024-01-06T02:13:23;17.50;;;11.10;;
80247;SDS011;69560;52.206;21.018;2024-01-06T02:15:50;17.30;;;11.10;;
80247;SDS011;69560;52.206;21.018;2024-01-06T02:18:17;17.90;;;11.80;;
80247;SDS011;69560;52.206;21.018;2024-01-06T02:20:43;18.50;;;12.50;;
80247;SDS011;69560;52.206;21.018;2024-01-06T02:23:11;18.80;;;11.90;;
80247;SDS011;69560;52.206;21.018;2024-01-06T02:25:38;19.20;;;12.60;;
80247;SDS011;69560;52.206;21.018;2024-01-06T02:28:04;20.30;;;12.60;;
80247;SDS011;69560;52.206;21.018;2024-01-06T02:30:31;18.60;;;12.20;;
80247;SDS011;69560;52.206;21.018;2024-01-06T02:32:57;18.90;;;12.50;;
80247;SDS011;69560;52.206;21.018;2024-01-06T02:35:24;18.10;;;11.90;;
80247;SDS011;69560;52.206;21.018;2024-01-06T02:37:50;17.90;;;12.00;;
80247;SDS011;69560;52.206;21.018;2024-01-06T02:40:17;18.80;;;12.30;;
80247;SDS011;69560;52.206;21.018;2024-01-06T02:42:43;18.70;;;12.80;;
80247;SDS011;69560;52.206;21.018;2024-01-06T02:45:10;19.30;;;12.60;;
80247;SDS011;69560;52.206;21.018;2024-01-06T02:47:36;18.50;;;12.40;;
80247;SDS011;69560;52.206;21.018;2024-01-06T02:50:03;19.80;;;12.80;;
80247;SDS011;69560;52.206;21.018;2024-01-06T02:52:30;18.80;;;12.30;;
80247;SDS011;69560;52.206;21.018;2024-01-06T02:54:57;19.50;;;12.40;;
80247;SDS011;69560;52.206;21.018;2024-01-06T02:57:24;20.60;;;13.20;;
80247;SDS011;69560;52.206;21.018;2024-01-06T02:59:50;18.50;;;12.40;;
80247;SDS011;69560;52.206;21.018;2024-01-06T03:02:16;17.80;;;11.90;;
80247;SDS011;69560;52.206;21.018;2024-01-06T03:04:43;16.80;;;11.20;;
80247;SDS011;69560;52.206;21.018;2024-01-06T03:07:09;17.30;;;12.00;;
80247;SDS011;69560;52.206;21.018;2024-01-06T03:09:36;18.30;;;12.10;;
80247;SDS011;69560;52.206;21.018;2024-01-06T03:12:05;18.20;;;11.60;;
80247;SDS011;69560;52.206;21.018;2024-01-06T03:14:36;18.30;;;12.00;;
80247;SDS011;69560;52.206;21.018;2024-01-06T03:17:03;17.30;;;11.80;;
80247;SDS011;69560;52.206;21.018;2024-01-06T03:19:30;16.80;;;11.90;;
80247;SDS011;69560;52.206;21.018;2024-01-06T03:21:57;17.70;;;12.50;;
80247;SDS011;69560;52.206;21.018;2024-01-06T03:24:26;16.90;;;11.90;;
80247;SDS011;69560;52.206;21.018;2024-01-06T03:26:53;18.60;;;11.40;;
80247;SDS011;69560;52.206;21.018;2024-01-06T03:29:19;18.60;;;12.70;;
80247;SDS011;69560;52.206;21.018;2024-01-06T03:31:46;17.60;;;11.50;;
80247;SDS011;69560;52.206;21.018;2024-01-06T03:34:13;17.60;;;12.60;;
80247;SDS011;69560;52.206;21.018;2024-01-06T03:36:39;17.50;;;12.10;;
80247;SDS011;69560;52.206;21.018;2024-01-06T03:39:07;18.10;;;12.60;;
80247;SDS011;69560;52.206;21.018;2024-01-06T03:41:34;18.70;;;12.40;;
80247;SDS011;69560;52.206;21.018;2024-01-06T03:44:00;19.20;;;12.10;;
80247;SDS011;69560;52.206;21.018;2024-01-06T03:46:27;17.80;;;12.40;;
80247;SDS011;69560;52.206;21.018;2024-01-06T03:48:53;18.80;;;12.40;;
80247;SDS011;69560;52.206;21.018;2024-01-06T03:51:20;18.10;;;12.10;;
80247;SDS011;69560;52.206;21.018;2024-01-06T03:53:47;17.00;;;11.60;;
80247;SDS011;69560;52.206;21.018;2024-01-06T03:56:13;16.80;;;11.00;;
80247;SDS011;69560;52.206;21.018;2024-01-06T03:58:40;16.50;;;11.10;;
80247;SDS011;69560;52.206;21.018;2024-01-06T04:01:06;16.90;;;11.80;;
80247;SDS011;69560;52.206;21.018;2024-01-06T04:03:33;18.80;;;12.90;;
80247;SDS011;69560;52.206;21.018;2024-01-06T04:05:59;18.60;;;12.50;;
80247;SDS011;69560;52.206;21.018;2024-01-06T04:08:26;18.40;;;12.20;;
80247;SDS011;69560;52.206;21.018;2024-01-06T04:10:52;18.90;;;12.80;;
80247;SDS011;69560;52.206;21.018;2024-01-06T04:13:18;18.30;;;12.50;;
80247;SDS011;69560;52.206;21.018;2024-01-06T04:15:45;19.90;;;12.90;;
80247;SDS011;69560;52.206;21.018;2024-01-06T04:18:11;18.60;;;12.10;;
80247;SDS011;69560;52.206;21.018;2024-01-06T04:20:38;19.30;;;13.50;;
80247;SDS011;69560;52.206;21.018;2024-01-06T04:23:04;19.60;;;13.70;;
80247;SDS011;69560;52.206;21.018;2024-01-06T04:25:31;22.10;;;13.60;;
80247;SDS011;69560;52.206;21.018;2024-01-06T04:27:57;21.70;;;13.80;;
80247;SDS011;69560;52.206;21.018;2024-01-06T04:30:24;22.10;;;13.60;;
80247;SDS011;69560;52.206;21.018;2024-01-06T04:32:52;20.80;;;14.50;;
80247;SDS011;69560;52.206;21.018;2024-01-06T04:35:19;20.90;;;13.30;;
80247;SDS011;69560;52.206;21.018;2024-01-06T04:37:46;19.70;;;13.40;;
80247;SDS011;69560;52.206;21.018;2024-01-06T04:40:13;22.30;;;13.30;;
80247;SDS011;69560;52.206;21.018;2024-01-06T04:42:40;23.00;;;14.00;;
80247;SDS011;69560;52.206;21.018;2024-01-06T04:45:06;20.10;;;13.30;;
80247;SDS011;69560;52.206;21.018;2024-01-06T04:47:34;20.80;;;13.80;;
80247;SDS011;69560;52.206;21.018;2024-01-06T04:50:01;21.70;;;14.50;;
80247;SDS011;69560;52.206;21.018;2024-01-06T04:52:27;21.40;;;14.60;;
80247;SDS011;69560;52.206;21.018;2024-01-06T04:54:56;21.40;;;14.90;;
80247;SDS011;69560;52.206;21.018;2024-01-06T04:57:22;20.60;;;14.00;;
80247;SDS011;69560;52.206;21.018;2024-01-06T04:59:49;21.20;;;14.40;;
80247;SDS011;69560;52.206;21.018;2024-01-06T05:02:15;20.90;;;14.10;;
80247;SDS011;69560;52.206;21.018;2024-01-06T05:04:42;20.40;;;14.30;;
80247;SDS011;69560;52.206;21.018;2024-01-06T05:07:08;22.30;;;14.00;;
80247;SDS011;69560;52.206;21.018;2024-01-06T05:09:35;22.30;;;13.80;;
80247;SDS011;69560;52.206;21.018;2024-01-06T05:12:02;21.80;;;14.40;;
80247;SDS011;69560;52.206;21.018;2024-01-06T05:14:29;21.20;;;14.70;;
80247;SDS011;69560;52.206;21.018;2024-01-06T05:16:55;20.60;;;13.30;;
80247;SDS011;69560;52.206;21.018;2024-01-06T05:19:22;19.90;;;12.90;;
80247;SDS011;69560;52.206;21.018;2024-01-06T05:21:48;19.90;;;12.00;;
80247;SDS011;69560;52.206;21.018;2024-01-06T05:24:15;20.90;;;12.20;;
80247;SDS011;69560;52.206;21.018;2024-01-06T05:26:42;18.30;;;12.00;;
80247;SDS011;69560;52.206;21.018;2024-01-06T05:29:08;17.40;;;11.50;;
80247;SDS011;69560;52.206;21.018;2024-01-06T05:31:35;18.20;;;11.90;;
80247;SDS011;69560;52.206;21.018;2024-01-06T05:34:01;18.10;;;12.50;;
80247;SDS011;69560;52.206;21.018;2024-01-06T05:36:28;18.90;;;12.40;;
80247;SDS011;69560;52.206;21.018;2024-01-06T05:38:54;17.20;;;11.50;;
80247;SDS011;69560;52.206;21.018;2024-01-06T05:41:21;18.10;;;12.40;;
80247;SDS011;69560;52.206;21.018;2024-01-06T05:43:47;16.70;;;12.40;;
80247;SDS011;69560;52.206;21.018;2024-01-06T05:46:23;19.20;;;12.30;;
80247;SDS011;69560;52.206;21.018;2024-01-06T05:48:50;20.40;;;12.50;;
80247;SDS011;69560;52.206;21.018;2024-01-06T05:51:17;19.40;;;12.50;;
80247;SDS011;69560;52.206;21.018;2024-01-06T05:53:44;20.20;;;12.60;;
80247;SDS011;69560;52.206;21.018;2024-01-06T05:56:10;18.10;;;12.10;;
80247;SDS011;69560;52.206;21.018;2024-01-06T05:58:37;17.00;;;12.30;;
80247;SDS011;69560;52.206;21.018;2024-01-06T06:01:03;17.30;;;11.80;;
80247;SDS011;69560;52.206;21.018;2024-01-06T06:03:30;18.00;;;11.70;;
80247;SDS011;69560;52.206;21.018;2024-01-06T06:05:56;16.80;;;12.10;;
80247;SDS011;69560;52.206;21.018;2024-01-06T06:08:23;19.50;;;12.20;;
80247;SDS011;69560;52.206;21.018;2024-01-06T06:10:49;17.70;;;12.40;;
80247;SDS011;69560;52.206;21.018;2024-01-06T06:13:42;16.80;;;10.50;;
80247;SDS011;69560;52.206;21.018;2024-01-06T06:16:09;19.50;;;11.70;;
80247;SDS011;69560;52.206;21.018;2024-01-06T06:18:38;15.90;;;10.90;;
80247;SDS011;69560;52.206;21.018;2024-01-06T06:21:06;17.30;;;11.30;;
80247;SDS011;69560;52.206;21.018;2024-01-06T06:23:34;17.10;;;12.40;;
80247;SDS011;69560;52.206;21.018;2024-01-06T06:26:08;17.60;;;11.90;;
80247;SDS011;69560;52.206;21.018;2024-01-06T06:28:35;18.10;;;12.50;;
80247;SDS011;69560;52.206;21.018;2024-01-06T06:31:01;19.60;;;12.80;;
80247;SDS011;69560;52.206;21.018;2024-01-06T06:33:29;19.50;;;13.20;;
80247;SDS011;69560;52.206;21.018;2024-01-06T06:35:55;21.90;;;13.70;;
80247;SDS011;69560;52.206;21.018;2024-01-06T06:38:22;23.40;;;14.60;;
80247;SDS011;69560;52.206;21.018;2024-01-06T06:40:48;22.50;;;14.80;;
80247;SDS011;69560;52.206;21.018;2024-01-06T06:43:15;23.20;;;14.40;;
80247;SDS011;69560;52.206;21.018;2024-01-06T06:45:41;23.40;;;15.20;;
80247;SDS011;69560;52.206;21.018;2024-01-06T06:48:08;20.40;;;14.70;;
80247;SDS011;69560;52.206;21.018;2024-01-06T06:50:34;19.80;;;13.50;;
80247;SDS011;69560;52.206;21.018;2024-01-06T06:53:01;19.50;;;12.80;;
80247;SDS011;69560;52.206;21.018;2024-01-06T06:55:28;21.30;;;13.20;;
80247;SDS011;69560;52.206;21.018;2024-01-06T06:57:54;19.80;;;13.00;;
80247;SDS011;69560;52.206;21.018;2024-01-06T07:00:21;20.20;;;12.70;;
80247;SDS011;69560;52.206;21.018;2024-01-06T07:02:47;18.60;;;12.80;;
80247;SDS011;69560;52.206;21.018;2024-01-06T07:05:14;20.40;;;14.00;;
80247;SDS011;69560;52.206;21.018;2024-01-06T07:07:41;20.90;;;14.00;;
80247;SDS011;69560;52.206;21.018;2024-01-06T07:10:09;21.80;;;14.70;;
80247;SDS011;69560;52.206;21.018;2024-01-06T07:12:36;20.50;;;13.60;;
80247;SDS011;69560;52.206;21.018;2024-01-06T07:15:02;21.10;;;14.00;;
80247;SDS011;69560;52.206;21.018;2024-01-06T07:17:29;22.10;;;13.90;;
80247;SDS011;69560;52.206;21.018;2024-01-06T07:19:55;20.90;;;14.20;;
80247;SDS011;69560;52.206;21.018;2024-01-06T07:22:22;24.60;;;14.80;;
80247;SDS011;69560;52.206;21.018;2024-01-06T07:24:48;21.00;;;14.00;;
80247;SDS011;69560;52.206;21.018;2024-01-06T07:27:15;22.60;;;13.90;;
80247;SDS011;69560;52.206;21.018;2024-01-06T07:29:41;21.50;;;14.50;;
80247;SDS011;69560;52.206;21.018;2024-01-06T07:32:08;20.70;;;14.10;;
80247;SDS011;69560;52.206;21.018;2024-01-06T07:34:34;21.80;;;14.30;;
80247;SDS011;69560;52.206;21.018;2024-01-06T07:37:01;21.10;;;14.30;;
80247;SDS011;69560;52.206;21.018;2024-01-06T07:39:27;23.30;;;15.60;;
80247;SDS011;69560;52.206;21.018;2024-01-06T07:41:54;21.50;;;14.80;;
80247;SDS011;69560;52.206;21.018;2024-01-06T07:44:20;26.50;;;16.30;;
80247;SDS011;69560;52.206;21.018;2024-01-06T07:46:51;25.00;;;16.00;;
80247;SDS011;69560;52.206;21.018;2024-01-06T07:49:18;24.90;;;15.80;;
80247;SDS011;69560;52.206;21.018;2024-01-06T07:51:45;21.80;;;15.30;;
80247;SDS011;69560;52.206;21.018;2024-01-06T07:54:12;22.00;;;14.80;;
80247;SDS011;69560;52.206;21.018;2024-01-06T07:56:38;20.80;;;14.30;;
80247;SDS011;69560;52.206;21.018;2024-01-06T07:59:05;20.50;;;14.00;;
80247;SDS011;69560;52.206;21.018;2024-01-06T08:01:32;21.60;;;14.70;;
80247;SDS011;69560;52.206;21.018;2024-01-06T08:03:59;20.40;;;13.70;;
80247;SDS011;69560;52.206;21.018;2024-01-06T08:06:26;22.30;;;14.40;;
80247;SDS011;69560;52.206;21.018;2024-01-06T08:08:52;23.90;;;14.90;;
80247;SDS011;69560;52.206;21.018;2024-01-06T08:11:19;23.70;;;15.90;;
80247;SDS011;69560;52.206;21.018;2024-01-06T08:13:45;23.30;;;15.00;;
80247;SDS011;69560;52.206;21.018;2024-01-06T08:16:12;21.30;;;14.90;;
80247;SDS011;69560;52.206;21.018;2024-01-06T08:18:38;20.80;;;14.90;;
80247;SDS011;69560;52.206;21.018;2024-01-06T08:21:05;22.40;;;14.60;;
80247;SDS011;69560;52.206;21.018;2024-01-06T08:23:32;21.20;;;14.80;;
80247;SDS011;69560;52.206;21.018;2024-01-06T08:25:58;22.00;;;14.80;;
80247;SDS011;69560;52.206;21.018;2024-01-06T08:28:25;22.30;;;14.60;;
80247;SDS011;69560;52.206;21.018;2024-01-06T08:30:51;22.50;;;14.70;;
80247;SDS011;69560;52.206;21.018;2024-01-06T08:33:18;23.00;;;15.70;;
80247;SDS011;69560;52.206;21.018;2024-01-06T08:35:44;22.60;;;15.40;;
80247;SDS011;69560;52.206;21.018;2024-01-06T08:38:11;22.10;;;14.60;;
80247;SDS011;69560;52.206;21.018;2024-01-06T08:40:37;20.90;;;14.50;;
80247;SDS011;69560;52.206;21.018;2024-01-06T08:43:04;21.80;;;14.60;;
80247;SDS011;69560;52.206;21.018;2024-01-06T08:45:30;21.20;;;14.70;;
80247;SDS011;69560;52.206;21.018;2024-01-06T08:47:57;19.50;;;14.50;;
80247;SDS011;69560;52.206;21.018;2024-01-06T08:50:23;22.50;;;15.20;;
80247;SDS011;69560;52.206;21.018;2024-01-06T08:52:50;24.80;;;15.70;;
80247;SDS011;69560;52.206;21.018;2024-01-06T08:55:16;22.00;;;14.90;;
80247;SDS011;69560;52.206;21.018;2024-01-06T08:57:43;20.70;;;14.30;;
80247;SDS011;69560;52.206;21.018;2024-01-06T09:00:09;20.80;;;13.80;;
80247;SDS011;69560;52.206;21.018;2024-01-06T09:02:37;21.40;;;14.10;;
80247;SDS011;69560;52.206;21.018;2024-01-06T09:05:04;18.50;;;13.00;;
80247;SDS011;69560;52.206;21.018;2024-01-06T09:07:31;18.70;;;12.50;;
80247;SDS011;69560;52.206;21.018;2024-01-06T09:09:57;19.10;;;13.20;;
80247;SDS011;69560;52.206;21.018;2024-01-06T09:12:25;17.90;;;12.20;;
80247;SDS011;69560;52.206;21.018;2024-01-06T09:14:52;17.20;;;11.90;;
80247;SDS011;69560;52.206;21.018;2024-01-06T09:17:18;20.70;;;13.60;;
80247;SDS011;69560;52.206;21.018;2024-01-06T09:19:45;16.60;;;12.20;;
80247;SDS011;69560;52.206;21.018;2024-01-06T09:22:11;19.70;;;13.10;;
80247;SDS011;69560;52.206;21.018;2024-01-06T09:24:37;19.30;;;12.80;;
80247;SDS011;69560;52.206;21.018;2024-01-06T09:27:04;19.10;;;12.60;;
80247;SDS011;69560;52.206;21.018;2024-01-06T09:29:30;18.80;;;12.60;;
80247;SDS011;69560;52.206;21.018;2024-01-06T09:31:57;18.20;;;13.00;;
80247;SDS011;69560;52.206;21.018;2024-01-06T09:34:23;18.90;;;12.40;;
80247;SDS011;69560;52.206;21.018;2024-01-06T09:36:50;67.60;;;42.70;;
80247;SDS011;69560;52.206;21.018;2024-01-06T09:39:16;27.00;;;16.30;;
80247;SDS011;69560;52.206;21.018;2024-01-06T09:41:43;19.00;;;13.00;;
80247;SDS011;69560;52.206;21.018;2024-01-06T09:44:10;19.20;;;12.60;;
80247;SDS011;69560;52.206;21.018;2024-01-06T09:46:37;21.70;;;13.90;;
80247;SDS011;69560;52.206;21.018;2024-01-06T09:49:06;16.60;;;12.40;;
80247;SDS011;69560;52.206;21.018;2024-01-06T09:51:36;17.60;;;11.80;;
80247;SDS011;69560;52.206;21.018;2024-01-06T09:54:04;17.20;;;11.70;;
80247;SDS011;69560;52.206;21.018;2024-01-06T09:56:35;16.60;;;11.80;;
80247;SDS011;69560;52.206;21.018;2024-01-06T09:59:02;18.30;;;12.20;;
80247;SDS011;69560;52.206;21.018;2024-01-06T10:01:29;16.00;;;11.30;;
80247;SDS011;69560;52.206;21.018;2024-01-06T10:03:55;15.20;;;11.40;;
80247;SDS011;69560;52.206;21.018;2024-01-06T10:06:22;16.50;;;11.60;;
80247;SDS011;69560;52.206;21.018;2024-01-06T10:08:49;16.30;;;11.20;;
80247;SDS011;69560;52.206;21.018;2024-01-06T10:11:18;15.80;;;11.30;;
80247;SDS011;69560;52.206;21.018;2024-01-06T10:13:50;16.30;;;10.90;;
80247;SDS011;69560;52.206;21.018;2024-01-06T10:16:18;19.80;;;12.10;;
80247;SDS011;69560;52.206;21.018;2024-01-06T10:18:45;17.30;;;11.50;;
80247;SDS011;69560;52.206;21.018;2024-01-06T10:21:11;17.00;;;12.00;;
80247;SDS011;69560;52.206;21.018;2024-01-06T10:23:39;16.30;;;11.50;;
80247;SDS011;69560;52.206;21.018;2024-01-06T10:26:12;16.80;;;11.60;;
80247;SDS011;69560;52.206;21.018;2024-01-06T10:28:39;13.10;;;9.80;;
80247;SDS011;69560;52.206;21.018;2024-01-06T10:31:07;12.00;;;9.00;;
80247;SDS011;69560;52.206;21.018;2024-01-06T10:33:34;15.20;;;9.30;;
80247;SDS011;69560;52.206;21.018;2024-01-06T10:36:02;12.90;;;9.60;;
80247;SDS011;69560;52.206;21.018;2024-01-06T10:38:30;13.70;;;9.60;;
80247;SDS011;69560;52.206;21.018;2024-01-06T10:41:00;14.50;;;9.70;;
80247;SDS011;69560;52.206;21.018;2024-01-06T10:43:36;15.10;;;10.00;;
80247;SDS011;69560;52.206;21.018;2024-01-06T10:46:10;14.20;;;10.00;;
80247;SDS011;69560;52.206;21.018;2024-01-06T10:48:38;12.50;;;9.70;;
80247;SDS011;69560;52.206;21.018;2024-01-06T10:51:09;13.40;;;9.30;;
80247;SDS011;69560;52.206;21.018;2024-01-06T10:53:35;14.80;;;10.70;;
80247;SDS011;69560;52.206;21.018;2024-01-06T10:56:03;12.90;;;10.40;;
80247;SDS011;69560;52.206;21.018;2024-01-06T10:58:31;12.30;;;9.70;;
80247;SDS011;69560;52.206;21.018;2024-01-06T11:01:00;15.10;;;10.70;;
80247;SDS011;69560;52.206;21.018;2024-01-06T11:03:27;14.20;;;10.30;;
80247;SDS011;69560;52.206;21.018;2024-01-06T11:05:56;13.80;;;9.50;;
80247;SDS011;69560;52.206;21.018;2024-01-06T11:08:25;12.70;;;9.60;;
80247;SDS011;69560;52.206;21.018;2024-01-06T11:10:53;14.30;;;9.90;;
80247;SDS011;69560;52.206;21.018;2024-01-06T11:13:23;14.60;;;10.60;;
80247;SDS011;69560;52.206;21.018;2024-01-06T11:15:51;12.50;;;9.30;;
80247;SDS011;69560;52.206;21.018;2024-01-06T11:21:19;16.30;;;9.70;;
80247;SDS011;69560;52.206;21.018;2024-01-06T11:26:44;15.60;;;9.80;;
80247;SDS011;69560;52.206;21.018;2024-01-06T11:29:11;19.80;;;14.10;;
80247;SDS011;69560;52.206;21.018;2024-01-06T11:31:39;36.40;;;22.90;;
80247;SDS011;69560;52.206;21.018;2024-01-06T11:34:18;17.20;;;11.40;;
80247;SDS011;69560;52.206;21.018;2024-01-06T11:36:48;13.90;;;9.40;;
80247;SDS011;69560;52.206;21.018;2024-01-06T11:42:00;14.00;;;9.30;;
80247;SDS011;69560;52.206;21.018;2024-01-06T11:44:27;16.10;;;10.10;;
80247;SDS011;69560;52.206;21.018;2024-01-06T11:46:56;12.90;;;9.10;;
80247;SDS011;69560;52.206;21.018;2024-01-06T11:49:23;13.50;;;9.60;;
80247;SDS011;69560;52.206;21.018;2024-01-06T11:51:54;15.40;;;9.70;;
80247;SDS011;69560;52.206;21.018;2024-01-06T11:54:21;11.40;;;8.80;;
80247;SDS011;69560;52.206;21.018;2024-01-06T11:56:48;15.10;;;9.50;;
80247;SDS011;69560;52.206;21.018;2024-01-06T11:59:15;11.90;;;8.80;;
80247;SDS011;69560;52.206;21.018;2024-01-06T12:01:41;15.70;;;10.30;;
80247;SDS011;69560;52.206;21.018;2024-01-06T12:04:08;14.20;;;9.80;;
80247;SDS011;69560;52.206;21.018;2024-01-06T12:06:40;14.40;;;10.60;;
80247;SDS011;69560;52.206;21.018;2024-01-06T12:09:09;14.30;;;10.00;;
80247;SDS011;69560;52.206;21.018;2024-01-06T12:11:37;13.10;;;9.40;;
80247;SDS011;69560;52.206;21.018;2024-01-06T12:14:03;13.40;;;9.50;;
80247;SDS011;69560;52.206;21.018;2024-01-06T12:16:31;16.00;;;10.40;;
80247;SDS011;69560;52.206;21.018;2024-01-06T12:18:59;14.80;;;9.40;;
80247;SDS011;69560;52.206;21.018;2024-01-06T12:24:12;14.80;;;9.40;;
80247;SDS011;69560;52.206;21.018;2024-01-06T12:26:42;10.40;;;8.30;;
80247;SDS011;69560;52.206;21.018;2024-01-06T12:29:11;11.60;;;8.70;;
80247;SDS011;69560;52.206;21.018;2024-01-06T12:31:39;11.60;;;9.20;;
80247;SDS011;69560;52.206;21.018;2024-01-06T12:34:06;12.60;;;8.60;;
80247;SDS011;69560;52.206;21.018;2024-01-06T12:36:37;13.40;;;8.90;;
80247;SDS011;69560;52.206;21.018;2024-01-06T12:39:04;13.40;;;9.00;;
80247;SDS011;69560;52.206;21.018;2024-01-06T12:41:31;12.20;;;8.70;;
80247;SDS011;69560;52.206;21.018;2024-01-06T12:44:01;13.90;;;8.40;;
80247;SDS011;69560;52.206;21.018;2024-01-06T12:46:28;12.40;;;8.70;;
80247;SDS011;69560;52.206;21.018;2024-01-06T12:48:54;12.20;;;8.40;;
80247;SDS011;69560;52.206;21.018;2024-01-06T12:51:21;12.30;;;8.30;;
80247;SDS011;69560;52.206;21.018;2024-01-06T12:53:47;8.60;;;6.80;;
80247;SDS011;69560;52.206;21.018;2024-01-06T12:56:14;12.00;;;8.00;;
80247;SDS011;69560;52.206;21.018;2024-01-06T12:58:41;12.10;;;7.90;;
80247;SDS011;69560;52.206;21.018;2024-01-06T13:01:08;10.90;;;7.30;;
80247;SDS011;69560;52.206;21.018;2024-01-06T13:03:34;10.50;;;7.20;;
80247;SDS011;69560;52.206;21.018;2024-01-06T13:06:01;11.00;;;7.20;;
80247;SDS011;69560;52.206;21.018;2024-01-06T13:08:28;10.50;;;7.70;;
80247;SDS011;69560;52.206;21.018;2024-01-06T13:10:55;11.20;;;7.80;;
80247;SDS011;69560;52.206;21.018;2024-01-06T13:13:22;22.30;;;11.90;;
80247;SDS011;69560;52.206;21.018;2024-01-06T13:15:49;17.60;;;11.50;;
80247;SDS011;69560;52.206;21.018;2024-01-06T13:18:15;12.50;;;8.30;;
80247;SDS011;69560;52.206;21.018;2024-01-06T13:20:43;13.40;;;8.40;;
80247;SDS011;69560;52.206;21.018;2024-01-06T13:23:09;16.20;;;9.10;;
80247;SDS011;69560;52.206;21.018;2024-01-06T13:25:37;12.30;;;7.90;;
80247;SDS011;69560;52.206;21.018;2024-01-06T13:28:06;10.80;;;7.70;;
80247;SDS011;69560;52.206;21.018;2024-01-06T13:30:33;12.80;;;8.00;;
80247;SDS011;69560;52.206;21.018;2024-01-06T13:33:00;12.00;;;7.70;;
80247;SDS011;69560;52.206;21.018;2024-01-06T13:35:27;11.30;;;8.10;;
80247;SDS011;69560;52.206;21.018;2024-01-06T13:37:55;11.00;;;7.30;;
80247;SDS011;69560;52.206;21.018;2024-01-06T13:40:22;10.70;;;7.60;;
80247;SDS011;69560;52.206;21.018;2024-01-06T13:42:49;11.80;;;7.10;;
80247;SDS011;69560;52.206;21.018;2024-01-06T13:45:19;13.00;;;8.10;;
80247;SDS011;69560;52.206;21.018;2024-01-06T13:47:45;11.30;;;6.80;;
80247;SDS011;69560;52.206;21.018;2024-01-06T13:50:12;26.30;;;15.50;;
80247;SDS011;69560;52.206;21.018;2024-01-06T13:52:43;16.00;;;10.00;;
80247;SDS011;69560;52.206;21.018;2024-01-06T13:55:11;9.10;;;6.40;;
80247;SDS011;69560;52.206;21.018;2024-01-06T13:57:38;9.70;;;6.50;;
80247;SDS011;69560;52.206;21.018;2024-01-06T14:00:08;9.50;;;6.70;;
80247;SDS011;69560;52.206;21.018;2024-01-06T14:02:35;8.70;;;6.30;;
80247;SDS011;69560;52.206;21.018;2024-01-06T14:05:02;12.30;;;7.20;;
80247;SDS011;69560;52.206;21.018;2024-01-06T14:07:28;9.00;;;6.10;;
80247;SDS011;69560;52.206;21.018;2024-01-06T14:09:55;10.20;;;6.50;;
80247;SDS011;69560;52.206;21.018;2024-01-06T14:12:21;10.60;;;6.70;;
80247;SDS011;69560;52.206;21.018;2024-01-06T14:14:48;10.10;;;6.50;;
80247;SDS011;69560;52.206;21.018;2024-01-06T14:17:14;8.70;;;6.60;;
80247;SDS011;69560;52.206;21.018;2024-01-06T14:19:41;10.20;;;6.30;;
80247;SDS011;69560;52.206;21.018;2024-01-06T14:22:08;9.70;;;6.10;;
80247;SDS011;69560;52.206;21.018;2024-01-06T14:24:34;9.60;;;6.20;;